sensor_id;sensor_type;location;lat;lon;timestamp;P1;durP1;ratioP1;P2;durP2;ratioP2
2728;SDS011;1372;47.956;7.830;2023-06-14T00:00:39;4.43;;;4.03;;
2728;SDS011;1372;47.956;7.830;2023-06-14T00:03:10;3.80;;;3.33;;
2728;SDS011;1372;47.956;7.830;2023-06-14T00:05:39;4.90;;;4.40;;
2728;SDS011;1372;47.956;7.830;2023-06-14T00:08:10;4.10;;;3.80;;
2728;SDS011;1372;47.956;7.830;2023-06-14T00:10:39;4.40;;;4.00;;
2728;SDS011;1372;47.956;7.830;2023-06-14T00:13:11;3.83;;;3.53;;
2728;SDS011;1372;47.956;7.830;2023-06-14T00:15:41;5.80;;;4.70;;
2728;SDS011;1372;47.956;7.830;2023-06-14T00:18:13;4.43;;;4.13;;
2728;SDS011;1372;47.956;7.830;2023-06-14T00:20:43;4.50;;;3.57;;
2728;SDS011;1372;47.956;7.830;2023-06-14T00:23:13;4.40;;;4.00;;
2728;SDS011;1372;47.956;7.830;2023-06-14T00:25:41;4.50;;;3.70;;
2728;SDS011;1372;47.956;7.830;2023-06-14T00:28:11;4.93;;;4.27;;
2728;SDS011;1372;47.956;7.830;2023-06-14T00:30:41;5.53;;;4.40;;
2728;SDS011;1372;47.956;7.830;2023-06-14T00:33:10;4.17;;;3.77;;
2728;SDS011;1372;47.956;7.830;2023-06-14T00:35:39;4.70;;;4.20;;
2728;SDS011;1372;47.956;7.830;2023-06-14T00:38:08;4.27;;;3.77;;
2728;SDS011;1372;47.956;7.830;2023-06-14T00:40:37;4.53;;;4.13;;
2728;SDS011;1372;47.956;7.830;2023-06-14T00:43:06;4.10;;;3.80;;
2728;SDS011;1372;47.956;7.830;2023-06-14T00:45:35;4.43;;;4.03;;
2728;SDS011;1372;47.956;7.830;2023-06-14T00:48:05;4.80;;;4.30;;
2728;SDS011;1372;47.956;7.830;2023-06-14T00:50:38;3.90;;;3.60;;
2728;SDS011;1372;47.956;7.830;2023-06-14T00:53:08;4.43;;;4.00;;
2728;SDS011;1372;47.956;7.830;2023-06-14T00:55:37;6.63;;;4.60;;
2728;SDS011;1372;47.956;7.830;2023-06-14T00:58:08;4.10;;;3.77;;
2728;SDS011;1372;47.956;7.830;2023-06-14T01:00:38;4.17;;;3.87;;
2728;SDS011;1372;47.956;7.830;2023-06-14T01:03:08;4.80;;;3.67;;
2728;SDS011;1372;47.956;7.830;2023-06-14T01:05:41;4.20;;;3.80;;
2728;SDS011;1372;47.956;7.830;2023-06-14T01:08:14;4.60;;;4.10;;
2728;SDS011;1372;47.956;7.830;2023-06-14T01:11:01;3.87;;;3.57;;
2728;SDS011;1372;47.956;7.830;2023-06-14T01:13:33;4.30;;;3.90;;
2728;SDS011;1372;47.956;7.830;2023-06-14T01:16:06;4.87;;;4.13;;
2728;SDS011;1372;47.956;7.830;2023-06-14T01:18:40;4.03;;;3.63;;
2728;SDS011;1372;47.956;7.830;2023-06-14T01:21:22;3.90;;;3.50;;
2728;SDS011;1372;47.956;7.830;2023-06-14T01:23:53;4.13;;;3.73;;
2728;SDS011;1372;47.956;7.830;2023-06-14T01:26:22;3.80;;;3.50;;
2728;SDS011;1372;47.956;7.830;2023-06-14T01:28:53;4.27;;;3.97;;
2728;SDS011;1372;47.956;7.830;2023-06-14T01:31:25;3.67;;;3.37;;
2728;SDS011;1372;47.956;7.830;2023-06-14T01:33:56;3.97;;;3.57;;
2728;SDS011;1372;47.956;7.830;2023-06-14T01:36:25;3.80;;;3.50;;
2728;SDS011;1372;47.956;7.830;2023-06-14T01:38:57;4.33;;;3.93;;
2728;SDS011;1372;47.956;7.830;2023-06-14T01:41:27;4.10;;;3.80;;
2728;SDS011;1372;47.956;7.830;2023-06-14T01:43:58;3.57;;;3.27;;
2728;SDS011;1372;47.956;7.830;2023-06-14T01:46:28;5.00;;;4.00;;
2728;SDS011;1372;47.956;7.830;2023-06-14T01:48:57;4.03;;;3.67;;
2728;SDS011;1372;47.956;7.830;2023-06-14T01:51:26;4.43;;;4.03;;
2728;SDS011;1372;47.956;7.830;2023-06-14T01:53:54;3.67;;;3.37;;
2728;SDS011;1372;47.956;7.830;2023-06-14T01:56:25;4.60;;;3.50;;
2728;SDS011;1372;47.956;7.830;2023-06-14T01:58:53;3.80;;;3.40;;
2728;SDS011;1372;47.956;7.830;2023-06-14T02:01:22;4.00;;;3.10;;
2728;SDS011;1372;47.956;7.830;2023-06-14T02:03:51;5.63;;;3.70;;
2728;SDS011;1372;47.956;7.830;2023-06-14T02:06:20;4.40;;;4.00;;
2728;SDS011;1372;47.956;7.830;2023-06-14T02:08:49;5.07;;;3.67;;
2728;SDS011;1372;47.956;7.830;2023-06-14T02:11:19;3.60;;;3.30;;
2728;SDS011;1372;47.956;7.830;2023-06-14T02:13:48;3.93;;;3.43;;
2728;SDS011;1372;47.956;7.830;2023-06-14T02:16:17;4.40;;;3.67;;
2728;SDS011;1372;47.956;7.830;2023-06-14T02:18:46;3.00;;;2.80;;
2728;SDS011;1372;47.956;7.830;2023-06-14T02:21:17;4.00;;;3.70;;
2728;SDS011;1372;47.956;7.830;2023-06-14T02:23:46;5.53;;;4.47;;
2728;SDS011;1372;47.956;7.830;2023-06-14T02:26:15;3.97;;;3.63;;
2728;SDS011;1372;47.956;7.830;2023-06-14T02:28:45;3.83;;;3.43;;
2728;SDS011;1372;47.956;7.830;2023-06-14T02:31:13;5.90;;;3.80;;
2728;SDS011;1372;47.956;7.830;2023-06-14T02:33:43;3.87;;;3.57;;
2728;SDS011;1372;47.956;7.830;2023-06-14T02:36:11;3.90;;;3.60;;
2728;SDS011;1372;47.956;7.830;2023-06-14T02:38:40;3.10;;;2.90;;
2728;SDS011;1372;47.956;7.830;2023-06-14T02:41:09;3.40;;;3.10;;
2728;SDS011;1372;47.956;7.830;2023-06-14T02:43:38;4.20;;;3.40;;
2728;SDS011;1372;47.956;7.830;2023-06-14T02:46:08;3.77;;;3.47;;
2728;SDS011;1372;47.956;7.830;2023-06-14T02:48:40;4.40;;;4.00;;
2728;SDS011;1372;47.956;7.830;2023-06-14T02:51:08;3.77;;;3.30;;
2728;SDS011;1372;47.956;7.830;2023-06-14T02:53:40;3.30;;;3.10;;
2728;SDS011;1372;47.956;7.830;2023-06-14T02:56:08;3.50;;;3.20;;
2728;SDS011;1372;47.956;7.830;2023-06-14T02:58:40;4.40;;;4.00;;
2728;SDS011;1372;47.956;7.830;2023-06-14T03:01:13;3.33;;;3.13;;
2728;SDS011;1372;47.956;7.830;2023-06-14T03:03:42;3.80;;;3.47;;
2728;SDS011;1372;47.956;7.830;2023-06-14T03:06:10;3.30;;;3.00;;
2728;SDS011;1372;47.956;7.830;2023-06-14T03:08:40;4.23;;;3.83;;
2728;SDS011;1372;47.956;7.830;2023-06-14T03:11:10;4.07;;;3.67;;
2728;SDS011;1372;47.956;7.830;2023-06-14T03:13:39;3.20;;;2.90;;
2728;SDS011;1372;47.956;7.830;2023-06-14T03:16:08;4.13;;;3.83;;
2728;SDS011;1372;47.956;7.830;2023-06-14T03:18:39;4.70;;;3.50;;
2728;SDS011;1372;47.956;7.830;2023-06-14T03:21:07;4.83;;;3.57;;
2728;SDS011;1372;47.956;7.830;2023-06-14T03:23:37;3.77;;;3.47;;
2728;SDS011;1372;47.956;7.830;2023-06-14T03:26:06;3.60;;;3.30;;
2728;SDS011;1372;47.956;7.830;2023-06-14T03:28:35;3.77;;;3.20;;
2728;SDS011;1372;47.956;7.830;2023-06-14T03:31:04;4.33;;;3.50;;
2728;SDS011;1372;47.956;7.830;2023-06-14T03:33:33;3.60;;;3.30;;
2728;SDS011;1372;47.956;7.830;2023-06-14T03:36:03;3.57;;;3.27;;
2728;SDS011;1372;47.956;7.830;2023-06-14T03:38:32;4.27;;;3.90;;
2728;SDS011;1372;47.956;7.830;2023-06-14T03:41:02;3.50;;;3.20;;
2728;SDS011;1372;47.956;7.830;2023-06-14T03:43:30;3.43;;;3.13;;
2728;SDS011;1372;47.956;7.830;2023-06-14T03:46:00;3.90;;;3.60;;
2728;SDS011;1372;47.956;7.830;2023-06-14T03:48:29;3.80;;;3.50;;
2728;SDS011;1372;47.956;7.830;2023-06-14T03:50:58;5.40;;;3.40;;
2728;SDS011;1372;47.956;7.830;2023-06-14T03:53:29;3.57;;;3.27;;
2728;SDS011;1372;47.956;7.830;2023-06-14T03:56:00;3.33;;;3.03;;
2728;SDS011;1372;47.956;7.830;2023-06-14T03:58:31;4.87;;;4.07;;
2728;SDS011;1372;47.956;7.830;2023-06-14T04:01:00;5.13;;;4.10;;
2728;SDS011;1372;47.956;7.830;2023-06-14T04:03:29;4.33;;;3.93;;
2728;SDS011;1372;47.956;7.830;2023-06-14T04:05:59;3.87;;;3.57;;
2728;SDS011;1372;47.956;7.830;2023-06-14T04:08:29;3.50;;;3.20;;
2728;SDS011;1372;47.956;7.830;2023-06-14T04:10:58;4.20;;;3.80;;
2728;SDS011;1372;47.956;7.830;2023-06-14T04:13:27;3.23;;;2.93;;
2728;SDS011;1372;47.956;7.830;2023-06-14T04:15:56;3.77;;;3.47;;
2728;SDS011;1372;47.956;7.830;2023-06-14T04:18:26;4.03;;;3.40;;
2728;SDS011;1372;47.956;7.830;2023-06-14T04:20:54;3.67;;;3.47;;
2728;SDS011;1372;47.956;7.830;2023-06-14T04:23:26;3.60;;;3.30;;
2728;SDS011;1372;47.956;7.830;2023-06-14T04:25:57;5.07;;;4.13;;
2728;SDS011;1372;47.956;7.830;2023-06-14T04:28:29;3.90;;;3.50;;
2728;SDS011;1372;47.956;7.830;2023-06-14T04:30:58;5.47;;;4.00;;
2728;SDS011;1372;47.956;7.830;2023-06-14T04:33:28;5.83;;;3.73;;
2728;SDS011;1372;47.956;7.830;2023-06-14T04:35:58;5.17;;;4.03;;
2728;SDS011;1372;47.956;7.830;2023-06-14T04:38:27;3.80;;;3.50;;
2728;SDS011;1372;47.956;7.830;2023-06-14T04:40:57;3.57;;;3.27;;
2728;SDS011;1372;47.956;7.830;2023-06-14T04:43:28;3.97;;;3.67;;
2728;SDS011;1372;47.956;7.830;2023-06-14T04:46:08;4.80;;;3.83;;
2728;SDS011;1372;47.956;7.830;2023-06-14T04:51:09;4.47;;;3.53;;
2728;SDS011;1372;47.956;7.830;2023-06-14T04:53:40;4.87;;;3.30;;
2728;SDS011;1372;47.956;7.830;2023-06-14T04:56:12;4.43;;;3.83;;
2728;SDS011;1372;47.956;7.830;2023-06-14T04:58:41;4.23;;;3.80;;
2728;SDS011;1372;47.956;7.830;2023-06-14T05:01:11;3.57;;;3.17;;
2728;SDS011;1372;47.956;7.830;2023-06-14T05:03:40;4.13;;;3.50;;
2728;SDS011;1372;47.956;7.830;2023-06-14T05:06:11;3.80;;;3.40;;
2728;SDS011;1372;47.956;7.830;2023-06-14T05:08:40;5.67;;;3.77;;
2728;SDS011;1372;47.956;7.830;2023-06-14T05:11:09;4.43;;;4.03;;
2728;SDS011;1372;47.956;7.830;2023-06-14T05:13:40;23.00;;;16.93;;
2728;SDS011;1372;47.956;7.830;2023-06-14T05:16:10;26.57;;;18.27;;
2728;SDS011;1372;47.956;7.830;2023-06-14T05:18:46;13.13;;;10.60;;
2728;SDS011;1372;47.956;7.830;2023-06-14T05:21:15;10.23;;;7.63;;
2728;SDS011;1372;47.956;7.830;2023-06-14T05:23:44;6.13;;;5.53;;
2728;SDS011;1372;47.956;7.830;2023-06-14T05:26:15;3.90;;;3.33;;
2728;SDS011;1372;47.956;7.830;2023-06-14T05:28:48;3.50;;;3.20;;
2728;SDS011;1372;47.956;7.830;2023-06-14T05:31:19;6.20;;;3.70;;
2728;SDS011;1372;47.956;7.830;2023-06-14T05:33:48;4.30;;;3.97;;
2728;SDS011;1372;47.956;7.830;2023-06-14T05:36:17;5.57;;;4.07;;
2728;SDS011;1372;47.956;7.830;2023-06-14T05:38:49;4.23;;;3.83;;
2728;SDS011;1372;47.956;7.830;2023-06-14T05:41:25;4.63;;;4.23;;
2728;SDS011;1372;47.956;7.830;2023-06-14T05:43:55;3.47;;;3.17;;
2728;SDS011;1372;47.956;7.830;2023-06-14T05:46:24;3.87;;;3.47;;
2728;SDS011;1372;47.956;7.830;2023-06-14T05:48:55;4.87;;;4.37;;
2728;SDS011;1372;47.956;7.830;2023-06-14T05:51:24;4.43;;;4.03;;
2728;SDS011;1372;47.956;7.830;2023-06-14T05:53:53;4.40;;;4.00;;
2728;SDS011;1372;47.956;7.830;2023-06-14T05:56:23;3.93;;;3.63;;
2728;SDS011;1372;47.956;7.830;2023-06-14T05:58:54;4.20;;;3.80;;
2728;SDS011;1372;47.956;7.830;2023-06-14T06:01:23;5.90;;;4.63;;
2728;SDS011;1372;47.956;7.830;2023-06-14T06:03:52;3.97;;;3.63;;
2728;SDS011;1372;47.956;7.830;2023-06-14T06:06:20;4.07;;;3.70;;
2728;SDS011;1372;47.956;7.830;2023-06-14T06:08:49;5.77;;;4.30;;
2728;SDS011;1372;47.956;7.830;2023-06-14T06:11:18;4.80;;;4.40;;
2728;SDS011;1372;47.956;7.830;2023-06-14T06:13:47;4.30;;;3.90;;
2728;SDS011;1372;47.956;7.830;2023-06-14T06:16:17;4.27;;;3.87;;
2728;SDS011;1372;47.956;7.830;2023-06-14T06:18:46;4.43;;;4.03;;
2728;SDS011;1372;47.956;7.830;2023-06-14T06:21:15;4.37;;;3.73;;
2728;SDS011;1372;47.956;7.830;2023-06-14T06:23:44;4.60;;;4.20;;
2728;SDS011;1372;47.956;7.830;2023-06-14T06:26:12;4.77;;;4.17;;
2728;SDS011;1372;47.956;7.830;2023-06-14T06:28:41;5.90;;;4.20;;
2728;SDS011;1372;47.956;7.830;2023-06-14T06:31:10;4.17;;;3.77;;
2728;SDS011;1372;47.956;7.830;2023-06-14T06:33:40;4.63;;;4.23;;
2728;SDS011;1372;47.956;7.830;2023-06-14T06:36:09;4.30;;;4.00;;
2728;SDS011;1372;47.956;7.830;2023-06-14T06:38:38;4.20;;;3.67;;
2728;SDS011;1372;47.956;7.830;2023-06-14T06:41:07;3.93;;;3.63;;
2728;SDS011;1372;47.956;7.830;2023-06-14T06:43:36;4.90;;;4.43;;
2728;SDS011;1372;47.956;7.830;2023-06-14T06:46:05;4.60;;;4.20;;
2728;SDS011;1372;47.956;7.830;2023-06-14T06:48:33;7.43;;;4.50;;
2728;SDS011;1372;47.956;7.830;2023-06-14T06:51:04;5.47;;;4.97;;
2728;SDS011;1372;47.956;7.830;2023-06-14T06:53:33;5.90;;;5.27;;
2728;SDS011;1372;47.956;7.830;2023-06-14T06:56:08;5.17;;;4.67;;
2728;SDS011;1372;47.956;7.830;2023-06-14T06:58:37;7.10;;;4.57;;
2728;SDS011;1372;47.956;7.830;2023-06-14T07:01:06;7.03;;;4.27;;
2728;SDS011;1372;47.956;7.830;2023-06-14T07:03:35;5.40;;;4.90;;
2728;SDS011;1372;47.956;7.830;2023-06-14T07:06:06;7.00;;;5.00;;
2728;SDS011;1372;47.956;7.830;2023-06-14T07:08:35;5.30;;;4.80;;
2728;SDS011;1372;47.956;7.830;2023-06-14T07:11:05;5.80;;;4.97;;
2728;SDS011;1372;47.956;7.830;2023-06-14T07:13:35;9.37;;;5.30;;
2728;SDS011;1372;47.956;7.830;2023-06-14T07:16:04;5.00;;;4.60;;
2728;SDS011;1372;47.956;7.830;2023-06-14T07:18:33;7.50;;;5.93;;
2728;SDS011;1372;47.956;7.830;2023-06-14T07:21:02;5.43;;;4.20;;
2728;SDS011;1372;47.956;7.830;2023-06-14T07:23:32;5.80;;;5.20;;
2728;SDS011;1372;47.956;7.830;2023-06-14T07:26:01;5.13;;;4.70;;
2728;SDS011;1372;47.956;7.830;2023-06-14T07:28:30;5.33;;;4.83;;
2728;SDS011;1372;47.956;7.830;2023-06-14T07:30:59;5.60;;;5.10;;
2728;SDS011;1372;47.956;7.830;2023-06-14T07:33:30;6.97;;;5.10;;
2728;SDS011;1372;47.956;7.830;2023-06-14T07:35:59;5.17;;;4.77;;
2728;SDS011;1372;47.956;7.830;2023-06-14T07:38:30;5.87;;;5.33;;
2728;SDS011;1372;47.956;7.830;2023-06-14T07:41:00;6.43;;;4.80;;
2728;SDS011;1372;47.956;7.830;2023-06-14T07:43:30;6.60;;;5.90;;
2728;SDS011;1372;47.956;7.830;2023-06-14T07:45:58;7.63;;;4.93;;
2728;SDS011;1372;47.956;7.830;2023-06-14T07:48:33;5.17;;;4.67;;
2728;SDS011;1372;47.956;7.830;2023-06-14T07:51:03;6.60;;;5.20;;
2728;SDS011;1372;47.956;7.830;2023-06-14T07:53:33;7.70;;;6.10;;
2728;SDS011;1372;47.956;7.830;2023-06-14T07:56:02;5.50;;;4.63;;
2728;SDS011;1372;47.956;7.830;2023-06-14T07:58:31;5.57;;;4.97;;
2728;SDS011;1372;47.956;7.830;2023-06-14T08:01:00;6.37;;;5.13;;
2728;SDS011;1372;47.956;7.830;2023-06-14T08:03:35;5.10;;;4.57;;
2728;SDS011;1372;47.956;7.830;2023-06-14T08:06:05;5.37;;;4.73;;
2728;SDS011;1372;47.956;7.830;2023-06-14T08:08:36;5.10;;;4.60;;
2728;SDS011;1372;47.956;7.830;2023-06-14T08:11:05;5.50;;;4.70;;
2728;SDS011;1372;47.956;7.830;2023-06-14T08:13:34;6.40;;;4.70;;
2728;SDS011;1372;47.956;7.830;2023-06-14T08:16:02;6.10;;;5.50;;
2728;SDS011;1372;47.956;7.830;2023-06-14T08:18:33;6.40;;;4.43;;
2728;SDS011;1372;47.956;7.830;2023-06-14T08:21:01;6.73;;;5.50;;
2728;SDS011;1372;47.956;7.830;2023-06-14T08:23:30;5.23;;;4.73;;
2728;SDS011;1372;47.956;7.830;2023-06-14T08:26:01;5.10;;;4.60;;
2728;SDS011;1372;47.956;7.830;2023-06-14T08:28:30;5.63;;;4.93;;
2728;SDS011;1372;47.956;7.830;2023-06-14T08:30:59;5.77;;;5.27;;
2728;SDS011;1372;47.956;7.830;2023-06-14T08:33:28;5.73;;;5.23;;
2728;SDS011;1372;47.956;7.830;2023-06-14T08:35:59;4.87;;;4.47;;
2728;SDS011;1372;47.956;7.830;2023-06-14T08:38:28;7.63;;;5.73;;
2728;SDS011;1372;47.956;7.830;2023-06-14T08:41:11;6.20;;;5.23;;
2728;SDS011;1372;47.956;7.830;2023-06-14T08:43:48;5.80;;;5.20;;
2728;SDS011;1372;47.956;7.830;2023-06-14T08:46:20;6.20;;;4.93;;
2728;SDS011;1372;47.956;7.830;2023-06-14T08:48:51;5.90;;;5.40;;
2728;SDS011;1372;47.956;7.830;2023-06-14T08:51:25;7.17;;;5.67;;
2728;SDS011;1372;47.956;7.830;2023-06-14T08:54:00;6.33;;;5.80;;
2728;SDS011;1372;47.956;7.830;2023-06-14T08:56:32;6.43;;;5.73;;
2728;SDS011;1372;47.956;7.830;2023-06-14T08:59:01;6.00;;;5.40;;
2728;SDS011;1372;47.956;7.830;2023-06-14T09:01:32;7.70;;;5.57;;
2728;SDS011;1372;47.956;7.830;2023-06-14T09:04:02;7.07;;;6.37;;
2728;SDS011;1372;47.956;7.830;2023-06-14T09:06:32;6.40;;;5.80;;
2728;SDS011;1372;47.956;7.830;2023-06-14T09:09:03;6.20;;;5.47;;
2728;SDS011;1372;47.956;7.830;2023-06-14T09:11:35;11.27;;;6.27;;
2728;SDS011;1372;47.956;7.830;2023-06-14T09:14:04;6.50;;;5.90;;
2728;SDS011;1372;47.956;7.830;2023-06-14T09:16:32;7.17;;;6.43;;
2728;SDS011;1372;47.956;7.830;2023-06-14T09:19:02;6.03;;;5.50;;
2728;SDS011;1372;47.956;7.830;2023-06-14T09:21:33;5.60;;;5.17;;
2728;SDS011;1372;47.956;7.830;2023-06-14T09:24:04;6.20;;;5.53;;
2728;SDS011;1372;47.956;7.830;2023-06-14T09:26:33;6.27;;;5.70;;
2728;SDS011;1372;47.956;7.830;2023-06-14T09:29:09;17.60;;;5.93;;
2728;SDS011;1372;47.956;7.830;2023-06-14T09:31:38;7.90;;;6.07;;
2728;SDS011;1372;47.956;7.830;2023-06-14T09:34:07;9.93;;;6.77;;
2728;SDS011;1372;47.956;7.830;2023-06-14T09:36:37;6.13;;;5.63;;
2728;SDS011;1372;47.956;7.830;2023-06-14T09:39:11;5.70;;;5.30;;
2728;SDS011;1372;47.956;7.830;2023-06-14T09:41:47;5.10;;;4.60;;
2728;SDS011;1372;47.956;7.830;2023-06-14T09:44:15;5.93;;;5.33;;
2728;SDS011;1372;47.956;7.830;2023-06-14T09:46:47;5.70;;;5.20;;
2728;SDS011;1372;47.956;7.830;2023-06-14T09:49:19;5.37;;;4.97;;
2728;SDS011;1372;47.956;7.830;2023-06-14T09:51:50;5.90;;;5.27;;
2728;SDS011;1372;47.956;7.830;2023-06-14T09:54:22;5.23;;;4.83;;
2728;SDS011;1372;47.956;7.830;2023-06-14T09:56:53;5.90;;;5.40;;
2728;SDS011;1372;47.956;7.830;2023-06-14T09:59:25;5.73;;;5.23;;
2728;SDS011;1372;47.956;7.830;2023-06-14T10:01:58;6.40;;;5.80;;
2728;SDS011;1372;47.956;7.830;2023-06-14T10:04:35;5.60;;;5.10;;
2728;SDS011;1372;47.956;7.830;2023-06-14T10:07:05;5.77;;;5.27;;
2728;SDS011;1372;47.956;7.830;2023-06-14T10:09:34;6.27;;;5.40;;
2728;SDS011;1372;47.956;7.830;2023-06-14T10:12:05;6.20;;;5.70;;
2728;SDS011;1372;47.956;7.830;2023-06-14T10:14:37;5.33;;;4.93;;
2728;SDS011;1372;47.956;7.830;2023-06-14T10:17:10;6.73;;;5.00;;
2728;SDS011;1372;47.956;7.830;2023-06-14T10:19:48;5.73;;;5.23;;
2728;SDS011;1372;47.956;7.830;2023-06-14T10:22:32;5.00;;;4.60;;
2728;SDS011;1372;47.956;7.830;2023-06-14T10:25:12;5.43;;;5.03;;
2728;SDS011;1372;47.956;7.830;2023-06-14T10:28:03;6.17;;;5.30;;
2728;SDS011;1372;47.956;7.830;2023-06-14T10:31:05;4.93;;;4.53;;
2728;SDS011;1372;47.956;7.830;2023-06-14T10:33:35;5.60;;;5.13;;
2728;SDS011;1372;47.956;7.830;2023-06-14T10:36:10;5.40;;;5.00;;
2728;SDS011;1372;47.956;7.830;2023-06-14T10:39:00;5.87;;;5.37;;
2728;SDS011;1372;47.956;7.830;2023-06-14T10:41:34;5.40;;;5.00;;
2728;SDS011;1372;47.956;7.830;2023-06-14T10:44:12;6.10;;;5.60;;
2728;SDS011;1372;47.956;7.830;2023-06-14T10:47:07;5.30;;;4.87;;
2728;SDS011;1372;47.956;7.830;2023-06-14T10:49:39;6.37;;;5.87;;
2728;SDS011;1372;47.956;7.830;2023-06-14T10:52:11;7.40;;;6.00;;
2728;SDS011;1372;47.956;7.830;2023-06-14T10:55:05;6.60;;;5.47;;
2728;SDS011;1372;47.956;7.830;2023-06-14T10:57:41;6.70;;;5.90;;
2728;SDS011;1372;47.956;7.830;2023-06-14T11:00:22;5.73;;;5.10;;
2728;SDS011;1372;47.956;7.830;2023-06-14T11:06:13;6.00;;;5.47;;
2728;SDS011;1372;47.956;7.830;2023-06-14T11:09:04;5.93;;;5.37;;
2728;SDS011;1372;47.956;7.830;2023-06-14T11:11:51;5.67;;;5.27;;
2728;SDS011;1372;47.956;7.830;2023-06-14T11:14:24;6.73;;;6.17;;
2728;SDS011;1372;47.956;7.830;2023-06-14T11:16:54;5.13;;;4.73;;
2728;SDS011;1372;47.956;7.830;2023-06-14T11:19:23;5.73;;;5.30;;
2728;SDS011;1372;47.956;7.830;2023-06-14T11:21:55;6.67;;;6.17;;
2728;SDS011;1372;47.956;7.830;2023-06-14T11:24:28;5.20;;;4.80;;
2728;SDS011;1372;47.956;7.830;2023-06-14T11:26:57;5.77;;;5.27;;
2728;SDS011;1372;47.956;7.830;2023-06-14T11:29:28;5.83;;;5.33;;
2728;SDS011;1372;47.956;7.830;2023-06-14T11:32:00;5.77;;;5.37;;
2728;SDS011;1372;47.956;7.830;2023-06-14T11:34:28;6.33;;;5.83;;
2728;SDS011;1372;47.956;7.830;2023-06-14T11:36:57;5.90;;;5.30;;
2728;SDS011;1372;47.956;7.830;2023-06-14T11:39:27;5.67;;;5.17;;
2728;SDS011;1372;47.956;7.830;2023-06-14T11:41:56;6.03;;;5.60;;
2728;SDS011;1372;47.956;7.830;2023-06-14T11:44:27;5.27;;;4.83;;
2728;SDS011;1372;47.956;7.830;2023-06-14T11:46:57;5.80;;;5.30;;
2728;SDS011;1372;47.956;7.830;2023-06-14T11:49:27;5.93;;;5.50;;
2728;SDS011;1372;47.956;7.830;2023-06-14T11:51:56;5.87;;;5.40;;
2728;SDS011;1372;47.956;7.830;2023-06-14T11:54:27;5.37;;;4.97;;
2728;SDS011;1372;47.956;7.830;2023-06-14T11:56:56;7.57;;;5.07;;
2728;SDS011;1372;47.956;7.830;2023-06-14T11:59:25;6.17;;;5.63;;
2728;SDS011;1372;47.956;7.830;2023-06-14T12:01:55;5.83;;;5.40;;
2728;SDS011;1372;47.956;7.830;2023-06-14T12:04:27;6.23;;;5.83;;
2728;SDS011;1372;47.956;7.830;2023-06-14T12:07:08;5.87;;;5.37;;
2728;SDS011;1372;47.956;7.830;2023-06-14T12:09:38;5.83;;;5.40;;
2728;SDS011;1372;47.956;7.830;2023-06-14T12:12:08;6.20;;;5.70;;
2728;SDS011;1372;47.956;7.830;2023-06-14T12:14:37;6.13;;;5.63;;
2728;SDS011;1372;47.956;7.830;2023-06-14T12:17:09;5.73;;;5.20;;
2728;SDS011;1372;47.956;7.830;2023-06-14T12:19:42;5.47;;;5.07;;
2728;SDS011;1372;47.956;7.830;2023-06-14T12:22:12;8.33;;;5.50;;
2728;SDS011;1372;47.956;7.830;2023-06-14T12:24:42;5.67;;;5.27;;
2728;SDS011;1372;47.956;7.830;2023-06-14T12:27:11;7.57;;;5.37;;
2728;SDS011;1372;47.956;7.830;2023-06-14T12:29:44;6.93;;;6.37;;
2728;SDS011;1372;47.956;7.830;2023-06-14T12:32:13;6.07;;;5.43;;
2728;SDS011;1372;47.956;7.830;2023-06-14T12:34:43;6.17;;;5.57;;
2728;SDS011;1372;47.956;7.830;2023-06-14T12:37:12;7.00;;;5.97;;
2728;SDS011;1372;47.956;7.830;2023-06-14T12:39:40;5.80;;;5.40;;
2728;SDS011;1372;47.956;7.830;2023-06-14T12:42:09;6.70;;;5.43;;
2728;SDS011;1372;47.956;7.830;2023-06-14T12:44:40;6.10;;;5.60;;
2728;SDS011;1372;47.956;7.830;2023-06-14T12:47:09;6.10;;;5.50;;
2728;SDS011;1372;47.956;7.830;2023-06-14T12:49:39;5.77;;;5.27;;
2728;SDS011;1372;47.956;7.830;2023-06-14T12:52:10;5.60;;;5.10;;
2728;SDS011;1372;47.956;7.830;2023-06-14T12:54:39;5.43;;;4.93;;
2728;SDS011;1372;47.956;7.830;2023-06-14T12:57:10;5.33;;;4.93;;
2728;SDS011;1372;47.956;7.830;2023-06-14T12:59:38;6.50;;;5.07;;
2728;SDS011;1372;47.956;7.830;2023-06-14T13:02:12;5.60;;;5.10;;
2728;SDS011;1372;47.956;7.830;2023-06-14T13:04:43;6.50;;;6.00;;
2728;SDS011;1372;47.956;7.830;2023-06-14T13:07:14;5.53;;;5.13;;
2728;SDS011;1372;47.956;7.830;2023-06-14T13:09:47;6.10;;;5.60;;
2728;SDS011;1372;47.956;7.830;2023-06-14T13:12:16;6.57;;;5.83;;
2728;SDS011;1372;47.956;7.830;2023-06-14T13:14:45;6.13;;;5.53;;
2728;SDS011;1372;47.956;7.830;2023-06-14T13:17:13;5.90;;;5.30;;
2728;SDS011;1372;47.956;7.830;2023-06-14T13:19:42;5.70;;;5.30;;
2728;SDS011;1372;47.956;7.830;2023-06-14T13:22:11;8.20;;;5.17;;
2728;SDS011;1372;47.956;7.830;2023-06-14T13:24:41;5.87;;;5.07;;
2728;SDS011;1372;47.956;7.830;2023-06-14T13:27:10;5.80;;;5.33;;
2728;SDS011;1372;47.956;7.830;2023-06-14T13:29:41;6.73;;;6.13;;
2728;SDS011;1372;47.956;7.830;2023-06-14T13:32:09;6.17;;;5.67;;
2728;SDS011;1372;47.956;7.830;2023-06-14T13:34:38;5.70;;;5.20;;
2728;SDS011;1372;47.956;7.830;2023-06-14T13:37:07;5.80;;;5.40;;
2728;SDS011;1372;47.956;7.830;2023-06-14T13:39:36;6.20;;;5.53;;
2728;SDS011;1372;47.956;7.830;2023-06-14T13:42:06;7.33;;;5.30;;
2728;SDS011;1372;47.956;7.830;2023-06-14T13:44:37;6.10;;;5.57;;
2728;SDS011;1372;47.956;7.830;2023-06-14T13:47:07;6.60;;;6.00;;
2728;SDS011;1372;47.956;7.830;2023-06-14T13:49:36;5.83;;;5.33;;
2728;SDS011;1372;47.956;7.830;2023-06-14T13:52:05;5.90;;;5.40;;
2728;SDS011;1372;47.956;7.830;2023-06-14T13:54:37;6.00;;;5.40;;
2728;SDS011;1372;47.956;7.830;2023-06-14T13:57:08;6.03;;;5.53;;
2728;SDS011;1372;47.956;7.830;2023-06-14T13:59:39;6.33;;;5.83;;
2728;SDS011;1372;47.956;7.830;2023-06-14T14:02:10;5.17;;;4.80;;
2728;SDS011;1372;47.956;7.830;2023-06-14T14:04:42;5.83;;;5.33;;
2728;SDS011;1372;47.956;7.830;2023-06-14T14:07:11;6.33;;;5.83;;
2728;SDS011;1372;47.956;7.830;2023-06-14T14:09:46;5.73;;;5.30;;
2728;SDS011;1372;47.956;7.830;2023-06-14T14:12:28;6.37;;;5.77;;
2728;SDS011;1372;47.956;7.830;2023-06-14T14:15:02;5.20;;;4.70;;
2728;SDS011;1372;47.956;7.830;2023-06-14T14:18:28;5.47;;;4.97;;
2728;SDS011;1372;47.956;7.830;2023-06-14T14:20:59;5.63;;;5.23;;
2728;SDS011;1372;47.956;7.830;2023-06-14T14:23:28;5.73;;;5.17;;
2728;SDS011;1372;47.956;7.830;2023-06-14T14:25:58;5.73;;;5.23;;
2728;SDS011;1372;47.956;7.830;2023-06-14T14:28:36;6.20;;;5.60;;
2728;SDS011;1372;47.956;7.830;2023-06-14T14:31:10;5.80;;;5.40;;
2728;SDS011;1372;47.956;7.830;2023-06-14T14:33:39;5.97;;;5.57;;
2728;SDS011;1372;47.956;7.830;2023-06-14T14:36:08;5.90;;;5.50;;
2728;SDS011;1372;47.956;7.830;2023-06-14T14:38:37;5.70;;;5.10;;
2728;SDS011;1372;47.956;7.830;2023-06-14T14:41:06;5.70;;;5.30;;
2728;SDS011;1372;47.956;7.830;2023-06-14T14:43:36;5.60;;;5.10;;
2728;SDS011;1372;47.956;7.830;2023-06-14T14:46:05;5.87;;;5.27;;
2728;SDS011;1372;47.956;7.830;2023-06-14T14:48:34;8.40;;;4.97;;
2728;SDS011;1372;47.956;7.830;2023-06-14T14:51:03;5.10;;;4.60;;
2728;SDS011;1372;47.956;7.830;2023-06-14T14:53:32;5.50;;;5.10;;
2728;SDS011;1372;47.956;7.830;2023-06-14T14:56:01;5.70;;;5.30;;
2728;SDS011;1372;47.956;7.830;2023-06-14T14:58:32;6.17;;;5.77;;
2728;SDS011;1372;47.956;7.830;2023-06-14T15:01:03;6.27;;;5.77;;
2728;SDS011;1372;47.956;7.830;2023-06-14T15:03:32;5.90;;;5.30;;
2728;SDS011;1372;47.956;7.830;2023-06-14T15:06:19;5.83;;;4.70;;
2728;SDS011;1372;47.956;7.830;2023-06-14T15:08:48;5.87;;;5.47;;
2728;SDS011;1372;47.956;7.830;2023-06-14T15:11:17;6.30;;;5.37;;
2728;SDS011;1372;47.956;7.830;2023-06-14T15:13:49;5.90;;;5.50;;
2728;SDS011;1372;47.956;7.830;2023-06-14T15:16:20;5.33;;;4.60;;
2728;SDS011;1372;47.956;7.830;2023-06-14T15:18:53;6.40;;;5.90;;
2728;SDS011;1372;47.956;7.830;2023-06-14T15:21:25;8.33;;;4.97;;
2728;SDS011;1372;47.956;7.830;2023-06-14T15:23:54;5.37;;;4.87;;
2728;SDS011;1372;47.956;7.830;2023-06-14T15:26:23;5.17;;;4.70;;
2728;SDS011;1372;47.956;7.830;2023-06-14T15:28:56;7.43;;;5.20;;
2728;SDS011;1372;47.956;7.830;2023-06-14T15:31:27;5.93;;;5.43;;
2728;SDS011;1372;47.956;7.830;2023-06-14T15:34:01;5.67;;;5.17;;
2728;SDS011;1372;47.956;7.830;2023-06-14T15:36:30;4.97;;;4.57;;
2728;SDS011;1372;47.956;7.830;2023-06-14T15:38:59;5.57;;;5.07;;
2728;SDS011;1372;47.956;7.830;2023-06-14T15:41:28;5.60;;;5.20;;
2728;SDS011;1372;47.956;7.830;2023-06-14T15:43:57;5.73;;;5.23;;